sensor_id;sensor_type;location;lat;lon;timestamp;P1;durP1;ratioP1;P2;durP2;ratioP2
68938;SDS011;59064;45.294;11.816;2023-04-03T00:00:49;20.80;;;14.50;;
68938;SDS011;59064;45.294;11.816;2023-04-03T00:03:15;22.70;;;14.90;;
68938;SDS011;59064;45.294;11.816;2023-04-03T00:05:41;22.50;;;14.50;;
68938;SDS011;59064;45.294;11.816;2023-04-03T00:08:07;20.40;;;12.80;;
68938;SDS011;59064;45.294;11.816;2023-04-03T00:10:34;18.00;;;12.20;;
68938;SDS011;59064;45.294;11.816;2023-04-03T00:13:01;16.60;;;12.40;;
68938;SDS011;59064;45.294;11.816;2023-04-03T00:15:27;17.80;;;11.30;;
68938;SDS011;59064;45.294;11.816;2023-04-03T00:17:53;16.40;;;11.20;;
68938;SDS011;59064;45.294;11.816;2023-04-03T00:20:18;17.10;;;11.50;;
68938;SDS011;59064;45.294;11.816;2023-04-03T00:22:44;19.30;;;12.30;;
68938;SDS011;59064;45.294;11.816;2023-04-03T00:25:10;15.50;;;10.40;;
68938;SDS011;59064;45.294;11.816;2023-04-03T00:27:36;16.50;;;10.80;;
68938;SDS011;59064;45.294;11.816;2023-04-03T00:30:03;17.20;;;11.70;;
68938;SDS011;59064;45.294;11.816;2023-04-03T00:32:29;16.90;;;11.50;;
68938;SDS011;59064;45.294;11.816;2023-04-03T00:34:55;18.10;;;11.70;;
68938;SDS011;59064;45.294;11.816;2023-04-03T00:37:21;15.00;;;10.80;;
68938;SDS011;59064;45.294;11.816;2023-04-03T00:39:46;18.40;;;12.10;;
68938;SDS011;59064;45.294;11.816;2023-04-03T00:42:12;20.50;;;12.70;;
68938;SDS011;59064;45.294;11.816;2023-04-03T00:47:03;18.60;;;11.90;;
68938;SDS011;59064;45.294;11.816;2023-04-03T00:49:32;15.60;;;11.60;;
68938;SDS011;59064;45.294;11.816;2023-04-03T00:51:58;18.00;;;12.00;;
68938;SDS011;59064;45.294;11.816;2023-04-03T00:54:24;16.80;;;12.10;;
68938;SDS011;59064;45.294;11.816;2023-04-03T00:56:51;16.30;;;11.50;;
68938;SDS011;59064;45.294;11.816;2023-04-03T00:59:22;18.60;;;12.70;;
68938;SDS011;59064;45.294;11.816;2023-04-03T01:01:52;17.10;;;11.90;;
68938;SDS011;59064;45.294;11.816;2023-04-03T01:06:57;16.60;;;10.50;;
68938;SDS011;59064;45.294;11.816;2023-04-03T01:09:27;14.80;;;10.60;;
68938;SDS011;59064;45.294;11.816;2023-04-03T01:11:54;17.20;;;10.30;;
68938;SDS011;59064;45.294;11.816;2023-04-03T01:14:20;15.80;;;11.00;;
68938;SDS011;59064;45.294;11.816;2023-04-03T01:16:52;13.80;;;9.70;;
68938;SDS011;59064;45.294;11.816;2023-04-03T01:19:18;15.00;;;9.70;;
68938;SDS011;59064;45.294;11.816;2023-04-03T01:24:44;14.00;;;9.20;;
68938;SDS011;59064;45.294;11.816;2023-04-03T01:27:11;15.30;;;10.60;;
68938;SDS011;59064;45.294;11.816;2023-04-03T01:29:37;14.30;;;9.00;;
68938;SDS011;59064;45.294;11.816;2023-04-03T01:32:03;14.10;;;8.90;;
68938;SDS011;59064;45.294;11.816;2023-04-03T01:34:30;13.30;;;9.60;;
68938;SDS011;59064;45.294;11.816;2023-04-03T01:36:55;15.70;;;10.80;;
68938;SDS011;59064;45.294;11.816;2023-04-03T01:39:22;16.70;;;11.00;;
68938;SDS011;59064;45.294;11.816;2023-04-03T01:41:48;16.30;;;11.20;;
68938;SDS011;59064;45.294;11.816;2023-04-03T01:44:14;16.10;;;10.30;;
68938;SDS011;59064;45.294;11.816;2023-04-03T01:46:39;15.30;;;11.20;;
68938;SDS011;59064;45.294;11.816;2023-04-03T01:49:07;18.00;;;11.40;;
68938;SDS011;59064;45.294;11.816;2023-04-03T01:51:33;19.70;;;11.00;;
68938;SDS011;59064;45.294;11.816;2023-04-03T01:53:58;17.90;;;11.60;;
68938;SDS011;59064;45.294;11.816;2023-04-03T01:56:24;16.20;;;11.00;;
68938;SDS011;59064;45.294;11.816;2023-04-03T01:58:50;15.20;;;10.70;;
68938;SDS011;59064;45.294;11.816;2023-04-03T02:01:17;13.60;;;9.70;;
68938;SDS011;59064;45.294;11.816;2023-04-03T02:03:42;13.60;;;8.90;;
68938;SDS011;59064;45.294;11.816;2023-04-03T02:06:08;13.70;;;8.80;;
68938;SDS011;59064;45.294;11.816;2023-04-03T02:08:33;17.50;;;10.80;;
68938;SDS011;59064;45.294;11.816;2023-04-03T02:10:59;16.50;;;10.70;;
68938;SDS011;59064;45.294;11.816;2023-04-03T02:13:25;15.60;;;10.70;;
68938;SDS011;59064;45.294;11.816;2023-04-03T02:15:50;15.40;;;10.20;;
68938;SDS011;59064;45.294;11.816;2023-04-03T02:18:16;16.00;;;10.30;;
68938;SDS011;59064;45.294;11.816;2023-04-03T02:20:42;16.60;;;10.50;;
68938;SDS011;59064;45.294;11.816;2023-04-03T02:23:08;13.30;;;7.00;;
68938;SDS011;59064;45.294;11.816;2023-04-03T02:25:35;11.10;;;7.10;;
68938;SDS011;59064;45.294;11.816;2023-04-03T02:28:00;14.90;;;7.70;;
68938;SDS011;59064;45.294;11.816;2023-04-03T02:30:26;11.80;;;7.60;;
68938;SDS011;59064;45.294;11.816;2023-04-03T02:32:51;12.50;;;7.60;;
68938;SDS011;59064;45.294;11.816;2023-04-03T02:35:19;14.10;;;9.30;;
68938;SDS011;59064;45.294;11.816;2023-04-03T02:37:45;11.70;;;7.70;;
68938;SDS011;59064;45.294;11.816;2023-04-03T02:40:10;12.30;;;8.10;;
68938;SDS011;59064;45.294;11.816;2023-04-03T02:42:36;13.30;;;8.80;;
68938;SDS011;59064;45.294;11.816;2023-04-03T02:45:02;11.30;;;7.70;;
68938;SDS011;59064;45.294;11.816;2023-04-03T02:47:28;10.70;;;6.90;;
68938;SDS011;59064;45.294;11.816;2023-04-03T02:49:53;11.10;;;6.80;;
68938;SDS011;59064;45.294;11.816;2023-04-03T02:52:19;12.50;;;8.40;;
68938;SDS011;59064;45.294;11.816;2023-04-03T02:54:45;11.20;;;7.30;;
68938;SDS011;59064;45.294;11.816;2023-04-03T02:57:10;17.50;;;6.20;;
68938;SDS011;59064;45.294;11.816;2023-04-03T02:59:37;12.50;;;6.80;;
68938;SDS011;59064;45.294;11.816;2023-04-03T03:02:06;11.90;;;6.60;;
68938;SDS011;59064;45.294;11.816;2023-04-03T03:04:35;10.80;;;6.00;;
68938;SDS011;59064;45.294;11.816;2023-04-03T03:07:01;8.90;;;5.60;;
68938;SDS011;59064;45.294;11.816;2023-04-03T03:09:27;9.00;;;5.60;;
68938;SDS011;59064;45.294;11.816;2023-04-03T03:11:52;10.00;;;5.60;;
68938;SDS011;59064;45.294;11.816;2023-04-03T03:14:18;12.60;;;6.00;;
68938;SDS011;59064;45.294;11.816;2023-04-03T03:16:43;9.40;;;5.70;;
68938;SDS011;59064;45.294;11.816;2023-04-03T03:19:09;10.90;;;6.20;;
68938;SDS011;59064;45.294;11.816;2023-04-03T03:21:35;8.80;;;5.20;;
68938;SDS011;59064;45.294;11.816;2023-04-03T03:24:00;9.60;;;5.90;;
68938;SDS011;59064;45.294;11.816;2023-04-03T03:26:26;10.50;;;6.30;;
68938;SDS011;59064;45.294;11.816;2023-04-03T03:28:52;13.10;;;7.00;;
68938;SDS011;59064;45.294;11.816;2023-04-03T03:31:17;10.60;;;5.90;;
68938;SDS011;59064;45.294;11.816;2023-04-03T03:33:43;13.00;;;7.30;;
68938;SDS011;59064;45.294;11.816;2023-04-03T03:36:08;12.50;;;7.60;;
68938;SDS011;59064;45.294;11.816;2023-04-03T03:38:34;10.10;;;6.50;;
68938;SDS011;59064;45.294;11.816;2023-04-03T03:40:59;11.80;;;6.80;;
68938;SDS011;59064;45.294;11.816;2023-04-03T03:43:25;9.30;;;6.10;;
68938;SDS011;59064;45.294;11.816;2023-04-03T03:45:53;10.80;;;5.90;;
68938;SDS011;59064;45.294;11.816;2023-04-03T03:48:19;7.40;;;4.70;;
68938;SDS011;59064;45.294;11.816;2023-04-03T03:50:46;8.30;;;5.20;;
68938;SDS011;59064;45.294;11.816;2023-04-03T03:53:12;10.00;;;5.50;;
68938;SDS011;59064;45.294;11.816;2023-04-03T03:55:38;10.40;;;5.60;;
68938;SDS011;59064;45.294;11.816;2023-04-03T03:58:03;8.90;;;5.40;;
68938;SDS011;59064;45.294;11.816;2023-04-03T04:00:30;9.30;;;4.90;;
68938;SDS011;59064;45.294;11.816;2023-04-03T04:02:55;7.20;;;4.20;;
68938;SDS011;59064;45.294;11.816;2023-04-03T04:05:21;8.40;;;5.20;;
68938;SDS011;59064;45.294;11.816;2023-04-03T04:07:47;8.60;;;5.10;;
68938;SDS011;59064;45.294;11.816;2023-04-03T04:10:12;9.00;;;5.00;;
68938;SDS011;59064;45.294;11.816;2023-04-03T04:12:38;7.90;;;4.40;;
68938;SDS011;59064;45.294;11.816;2023-04-03T04:15:04;6.80;;;4.00;;
68938;SDS011;59064;45.294;11.816;2023-04-03T04:17:30;10.40;;;3.70;;
68938;SDS011;59064;45.294;11.816;2023-04-03T04:19:56;9.40;;;3.30;;
68938;SDS011;59064;45.294;11.816;2023-04-03T04:22:22;5.30;;;2.20;;
68938;SDS011;59064;45.294;11.816;2023-04-03T04:24:47;7.60;;;2.70;;
68938;SDS011;59064;45.294;11.816;2023-04-03T04:27:13;5.10;;;2.50;;
68938;SDS011;59064;45.294;11.816;2023-04-03T04:29:38;5.60;;;2.50;;
68938;SDS011;59064;45.294;11.816;2023-04-03T04:32:04;5.40;;;2.20;;
68938;SDS011;59064;45.294;11.816;2023-04-03T04:34:29;5.00;;;2.40;;
68938;SDS011;59064;45.294;11.816;2023-04-03T04:36:55;3.30;;;1.20;;
68938;SDS011;59064;45.294;11.816;2023-04-03T04:39:21;2.30;;;1.10;;
68938;SDS011;59064;45.294;11.816;2023-04-03T04:41:47;1.90;;;0.80;;
68938;SDS011;59064;45.294;11.816;2023-04-03T04:44:12;2.40;;;1.10;;
68938;SDS011;59064;45.294;11.816;2023-04-03T04:46:38;2.70;;;1.40;;
68938;SDS011;59064;45.294;11.816;2023-04-03T04:49:03;6.10;;;1.20;;
68938;SDS011;59064;45.294;11.816;2023-04-03T04:51:29;3.80;;;1.40;;
68938;SDS011;59064;45.294;11.816;2023-04-03T04:53:54;3.60;;;1.70;;
68938;SDS011;59064;45.294;11.816;2023-04-03T04:56:20;4.30;;;1.80;;
68938;SDS011;59064;45.294;11.816;2023-04-03T04:58:45;3.90;;;1.70;;
68938;SDS011;59064;45.294;11.816;2023-04-03T05:01:11;4.30;;;1.90;;
68938;SDS011;59064;45.294;11.816;2023-04-03T05:03:37;7.30;;;2.00;;
68938;SDS011;59064;45.294;11.816;2023-04-03T05:06:02;4.90;;;2.00;;
68938;SDS011;59064;45.294;11.816;2023-04-03T05:08:28;4.60;;;1.70;;
68938;SDS011;59064;45.294;11.816;2023-04-03T05:10:54;4.90;;;1.70;;
68938;SDS011;59064;45.294;11.816;2023-04-03T05:13:20;5.20;;;2.10;;
68938;SDS011;59064;45.294;11.816;2023-04-03T05:15:46;5.80;;;2.00;;
68938;SDS011;59064;45.294;11.816;2023-04-03T05:18:12;6.90;;;2.00;;
68938;SDS011;59064;45.294;11.816;2023-04-03T05:20:38;7.20;;;2.40;;
68938;SDS011;59064;45.294;11.816;2023-04-03T05:23:04;3.90;;;1.60;;
68938;SDS011;59064;45.294;11.816;2023-04-03T05:25:29;6.70;;;2.00;;
68938;SDS011;59064;45.294;11.816;2023-04-03T05:27:55;6.00;;;2.00;;
68938;SDS011;59064;45.294;11.816;2023-04-03T05:30:21;6.30;;;2.10;;
68938;SDS011;59064;45.294;11.816;2023-04-03T05:32:47;7.80;;;2.00;;
68938;SDS011;59064;45.294;11.816;2023-04-03T05:35:12;4.10;;;1.90;;
68938;SDS011;59064;45.294;11.816;2023-04-03T05:37:38;5.30;;;2.10;;
68938;SDS011;59064;45.294;11.816;2023-04-03T05:40:04;4.70;;;2.40;;
68938;SDS011;59064;45.294;11.816;2023-04-03T05:42:31;3.20;;;1.80;;
68938;SDS011;59064;45.294;11.816;2023-04-03T05:44:56;4.90;;;1.80;;
68938;SDS011;59064;45.294;11.816;2023-04-03T05:47:22;4.50;;;2.00;;
68938;SDS011;59064;45.294;11.816;2023-04-03T05:49:48;5.50;;;2.10;;
68938;SDS011;59064;45.294;11.816;2023-04-03T05:52:21;5.50;;;1.80;;
68938;SDS011;59064;45.294;11.816;2023-04-03T05:54:49;5.30;;;2.70;;
68938;SDS011;59064;45.294;11.816;2023-04-03T05:57:15;4.10;;;2.00;;
68938;SDS011;59064;45.294;11.816;2023-04-03T05:59:44;11.20;;;5.20;;
68938;SDS011;59064;45.294;11.816;2023-04-03T06:02:15;14.70;;;7.70;;
68938;SDS011;59064;45.294;11.816;2023-04-03T06:04:42;8.70;;;2.50;;
68938;SDS011;59064;45.294;11.816;2023-04-03T06:07:10;4.60;;;2.10;;
68938;SDS011;59064;45.294;11.816;2023-04-03T06:09:38;7.90;;;3.00;;
68938;SDS011;59064;45.294;11.816;2023-04-03T06:12:04;5.80;;;3.10;;
68938;SDS011;59064;45.294;11.816;2023-04-03T06:14:30;5.40;;;2.40;;
68938;SDS011;59064;45.294;11.816;2023-04-03T06:16:55;3.80;;;2.10;;
68938;SDS011;59064;45.294;11.816;2023-04-03T06:19:21;6.60;;;3.20;;
68938;SDS011;59064;45.294;11.816;2023-04-03T06:21:47;5.70;;;2.30;;
68938;SDS011;59064;45.294;11.816;2023-04-03T06:24:16;5.50;;;2.40;;
68938;SDS011;59064;45.294;11.816;2023-04-03T06:26:42;6.90;;;2.10;;
68938;SDS011;59064;45.294;11.816;2023-04-03T06:29:08;6.00;;;2.10;;
68938;SDS011;59064;45.294;11.816;2023-04-03T06:31:34;4.70;;;1.80;;
68938;SDS011;59064;45.294;11.816;2023-04-03T06:34:01;5.30;;;1.90;;
68938;SDS011;59064;45.294;11.816;2023-04-03T06:36:27;4.30;;;2.00;;
68938;SDS011;59064;45.294;11.816;2023-04-03T06:38:53;4.20;;;1.80;;
68938;SDS011;59064;45.294;11.816;2023-04-03T06:41:19;5.70;;;1.80;;
68938;SDS011;59064;45.294;11.816;2023-04-03T06:43:46;5.00;;;1.70;;
68938;SDS011;59064;45.294;11.816;2023-04-03T06:46:15;3.70;;;1.30;;
68938;SDS011;59064;45.294;11.816;2023-04-03T06:48:44;5.50;;;1.50;;
68938;SDS011;59064;45.294;11.816;2023-04-03T06:51:24;7.10;;;1.80;;
68938;SDS011;59064;45.294;11.816;2023-04-03T06:53:52;5.60;;;1.60;;
68938;SDS011;59064;45.294;11.816;2023-04-03T06:56:19;3.80;;;1.50;;
68938;SDS011;59064;45.294;11.816;2023-04-03T06:58:45;4.70;;;1.50;;
68938;SDS011;59064;45.294;11.816;2023-04-03T07:01:12;2.90;;;1.20;;
68938;SDS011;59064;45.294;11.816;2023-04-03T07:03:40;3.40;;;1.20;;
68938;SDS011;59064;45.294;11.816;2023-04-03T07:06:06;3.10;;;1.50;;
68938;SDS011;59064;45.294;11.816;2023-04-03T07:08:33;5.40;;;1.60;;
68938;SDS011;59064;45.294;11.816;2023-04-03T07:10:59;5.00;;;1.50;;
68938;SDS011;59064;45.294;11.816;2023-04-03T07:13:25;4.30;;;1.70;;
68938;SDS011;59064;45.294;11.816;2023-04-03T07:15:51;3.20;;;1.10;;
68938;SDS011;59064;45.294;11.816;2023-04-03T07:18:17;3.60;;;1.30;;
68938;SDS011;59064;45.294;11.816;2023-04-03T07:20:43;3.90;;;1.20;;
68938;SDS011;59064;45.294;11.816;2023-04-03T07:23:09;3.50;;;1.60;;
68938;SDS011;59064;45.294;11.816;2023-04-03T07:25:35;4.10;;;1.50;;
68938;SDS011;59064;45.294;11.816;2023-04-03T07:28:01;3.20;;;1.40;;
68938;SDS011;59064;45.294;11.816;2023-04-03T07:30:27;3.40;;;1.30;;
68938;SDS011;59064;45.294;11.816;2023-04-03T07:32:52;4.30;;;1.40;;
68938;SDS011;59064;45.294;11.816;2023-04-03T07:35:18;4.10;;;1.50;;
68938;SDS011;59064;45.294;11.816;2023-04-03T07:37:44;4.50;;;1.50;;
68938;SDS011;59064;45.294;11.816;2023-04-03T07:40:09;2.90;;;1.30;;
68938;SDS011;59064;45.294;11.816;2023-04-03T07:42:35;4.40;;;1.30;;
68938;SDS011;59064;45.294;11.816;2023-04-03T07:45:02;2.80;;;1.20;;
68938;SDS011;59064;45.294;11.816;2023-04-03T07:47:28;3.70;;;1.20;;
68938;SDS011;59064;45.294;11.816;2023-04-03T07:49:54;6.80;;;1.10;;
68938;SDS011;59064;45.294;11.816;2023-04-03T07:52:19;4.60;;;1.40;;
68938;SDS011;59064;45.294;11.816;2023-04-03T07:54:45;4.80;;;1.30;;
68938;SDS011;59064;45.294;11.816;2023-04-03T07:57:10;4.20;;;1.70;;
68938;SDS011;59064;45.294;11.816;2023-04-03T07:59:36;5.90;;;1.70;;
68938;SDS011;59064;45.294;11.816;2023-04-03T08:02:02;5.90;;;1.50;;
68938;SDS011;59064;45.294;11.816;2023-04-03T08:04:29;4.40;;;1.10;;
68938;SDS011;59064;45.294;11.816;2023-04-03T08:06:55;6.40;;;1.50;;
68938;SDS011;59064;45.294;11.816;2023-04-03T08:09:22;6.30;;;1.40;;
68938;SDS011;59064;45.294;11.816;2023-04-03T08:11:47;4.20;;;1.20;;
68938;SDS011;59064;45.294;11.816;2023-04-03T08:14:13;3.50;;;1.30;;
68938;SDS011;59064;45.294;11.816;2023-04-03T08:16:44;5.00;;;1.30;;
68938;SDS011;59064;45.294;11.816;2023-04-03T08:19:10;7.20;;;1.30;;
68938;SDS011;59064;45.294;11.816;2023-04-03T08:21:39;5.80;;;1.80;;
68938;SDS011;59064;45.294;11.816;2023-04-03T08:24:06;4.00;;;1.60;;
68938;SDS011;59064;45.294;11.816;2023-04-03T08:26:33;5.90;;;1.60;;
68938;SDS011;59064;45.294;11.816;2023-04-03T08:28:58;2.50;;;0.90;;
68938;SDS011;59064;45.294;11.816;2023-04-03T08:31:24;3.40;;;1.10;;
68938;SDS011;59064;45.294;11.816;2023-04-03T08:33:49;5.20;;;1.70;;
68938;SDS011;59064;45.294;11.816;2023-04-03T08:36:28;4.20;;;1.60;;
68938;SDS011;59064;45.294;11.816;2023-04-03T08:38:55;4.00;;;1.50;;
68938;SDS011;59064;45.294;11.816;2023-04-03T08:41:28;4.40;;;1.40;;
68938;SDS011;59064;45.294;11.816;2023-04-03T08:49:11;4.60;;;1.50;;
68938;SDS011;59064;45.294;11.816;2023-04-03T08:51:49;5.80;;;1.70;;
68938;SDS011;59064;45.294;11.816;2023-04-03T08:54:20;6.70;;;1.40;;
68938;SDS011;59064;45.294;11.816;2023-04-03T08:56:56;4.60;;;2.10;;
68938;SDS011;59064;45.294;11.816;2023-04-03T08:59:27;6.60;;;2.10;;
68938;SDS011;59064;45.294;11.816;2023-04-03T09:01:56;3.60;;;1.10;;
68938;SDS011;59064;45.294;11.816;2023-04-03T09:04:23;5.50;;;1.80;;
68938;SDS011;59064;45.294;11.816;2023-04-03T09:06:53;4.00;;;1.30;;
68938;SDS011;59064;45.294;11.816;2023-04-03T09:09:35;3.90;;;1.40;;
68938;SDS011;59064;45.294;11.816;2023-04-03T09:12:20;3.20;;;1.40;;
68938;SDS011;59064;45.294;11.816;2023-04-03T09:14:57;4.60;;;1.60;;
68938;SDS011;59064;45.294;11.816;2023-04-03T09:20:22;4.00;;;1.40;;
68938;SDS011;59064;45.294;11.816;2023-04-03T09:22:52;3.60;;;1.30;;
68938;SDS011;59064;45.294;11.816;2023-04-03T09:25:31;3.30;;;1.50;;
68938;SDS011;59064;45.294;11.816;2023-04-03T09:28:00;5.10;;;1.20;;
68938;SDS011;59064;45.294;11.816;2023-04-03T09:30:26;5.40;;;1.70;;
68938;SDS011;59064;45.294;11.816;2023-04-03T09:32:54;4.50;;;1.60;;
68938;SDS011;59064;45.294;11.816;2023-04-03T09:37:50;3.50;;;1.10;;
68938;SDS011;59064;45.294;11.816;2023-04-03T09:40:37;11.70;;;1.90;;
68938;SDS011;59064;45.294;11.816;2023-04-03T09:45:42;3.60;;;1.30;;
68938;SDS011;59064;45.294;11.816;2023-04-03T09:50:40;4.20;;;1.40;;
68938;SDS011;59064;45.294;11.816;2023-04-03T09:58:42;3.90;;;1.40;;
68938;SDS011;59064;45.294;11.816;2023-04-03T10:04:24;3.20;;;1.30;;
68938;SDS011;59064;45.294;11.816;2023-04-03T10:06:51;4.50;;;1.30;;
68938;SDS011;59064;45.294;11.816;2023-04-03T10:09:22;4.30;;;1.50;;
68938;SDS011;59064;45.294;11.816;2023-04-03T10:12:06;3.50;;;1.30;;
68938;SDS011;59064;45.294;11.816;2023-04-03T10:14:39;2.40;;;1.10;;
68938;SDS011;59064;45.294;11.816;2023-04-03T10:25:23;4.00;;;1.50;;
68938;SDS011;59064;45.294;11.816;2023-04-03T10:28:02;6.20;;;1.60;;
68938;SDS011;59064;45.294;11.816;2023-04-03T10:50:23;4.50;;;1.70;;
68938;SDS011;59064;45.294;11.816;2023-04-03T10:53:14;6.30;;;1.70;;
68938;SDS011;59064;45.294;11.816;2023-04-03T10:58:24;4.70;;;1.20;;
68938;SDS011;59064;45.294;11.816;2023-04-03T11:00:56;3.80;;;1.40;;
68938;SDS011;59064;45.294;11.816;2023-04-03T11:03:48;3.60;;;1.50;;
68938;SDS011;59064;45.294;11.816;2023-04-03T11:06:17;5.20;;;1.70;;
68938;SDS011;59064;45.294;11.816;2023-04-03T11:08:48;4.60;;;1.10;;
68938;SDS011;59064;45.294;11.816;2023-04-03T11:11:17;2.60;;;1.10;;
68938;SDS011;59064;45.294;11.816;2023-04-03T11:13:51;4.70;;;1.00;;
68938;SDS011;59064;45.294;11.816;2023-04-03T11:16:24;3.10;;;1.30;;
68938;SDS011;59064;45.294;11.816;2023-04-03T11:24:42;4.20;;;1.30;;
68938;SDS011;59064;45.294;11.816;2023-04-03T11:27:15;5.30;;;1.30;;
68938;SDS011;59064;45.294;11.816;2023-04-03T11:29:47;4.40;;;1.60;;
68938;SDS011;59064;45.294;11.816;2023-04-03T11:32:29;4.00;;;1.30;;
68938;SDS011;59064;45.294;11.816;2023-04-03T11:35:06;4.40;;;1.50;;
68938;SDS011;59064;45.294;11.816;2023-04-03T11:37:34;3.80;;;1.50;;
68938;SDS011;59064;45.294;11.816;2023-04-03T11:40:08;5.00;;;1.30;;
68938;SDS011;59064;45.294;11.816;2023-04-03T11:43:04;3.60;;;1.50;;
68938;SDS011;59064;45.294;11.816;2023-04-03T11:45:52;3.60;;;1.50;;
68938;SDS011;59064;45.294;11.816;2023-04-03T11:50:57;5.20;;;1.60;;
68938;SDS011;59064;45.294;11.816;2023-04-03T12:01:46;4.70;;;1.30;;
68938;SDS011;59064;45.294;11.816;2023-04-03T12:04:14;4.40;;;1.30;;
68938;SDS011;59064;45.294;11.816;2023-04-03T12:09:24;3.80;;;1.30;;
68938;SDS011;59064;45.294;11.816;2023-04-03T12:11:51;4.90;;;1.60;;
68938;SDS011;59064;45.294;11.816;2023-04-03T12:14:17;3.50;;;1.00;;
68938;SDS011;59064;45.294;11.816;2023-04-03T12:16:44;3.60;;;1.30;;
68938;SDS011;59064;45.294;11.816;2023-04-03T12:29:41;2.90;;;1.20;;
68938;SDS011;59064;45.294;11.816;2023-04-03T12:45:44;3.80;;;1.40;;
68938;SDS011;59064;45.294;11.816;2023-04-03T12:48:25;3.00;;;1.30;;
68938;SDS011;59064;45.294;11.816;2023-04-03T12:50:54;3.10;;;1.00;;
68938;SDS011;59064;45.294;11.816;2023-04-03T12:53:21;3.30;;;1.40;;
68938;SDS011;59064;45.294;11.816;2023-04-03T12:55:57;3.60;;;1.30;;
68938;SDS011;59064;45.294;11.816;2023-04-03T12:58:42;6.00;;;1.40;;
68938;SDS011;59064;45.294;11.816;2023-04-03T13:03:33;5.00;;;1.80;;
68938;SDS011;59064;45.294;11.816;2023-04-03T13:06:01;4.40;;;1.40;;
68938;SDS011;59064;45.294;11.816;2023-04-03T13:08:28;4.70;;;1.30;;
68938;SDS011;59064;45.294;11.816;2023-04-03T13:10:57;1.90;;;0.90;;
68938;SDS011;59064;45.294;11.816;2023-04-03T13:13:26;3.00;;;1.10;;
68938;SDS011;59064;45.294;11.816;2023-04-03T13:15:51;3.90;;;1.20;;
68938;SDS011;59064;45.294;11.816;2023-04-03T13:18:22;2.90;;;1.10;;
68938;SDS011;59064;45.294;11.816;2023-04-03T13:21:01;4.60;;;2.20;;
68938;SDS011;59064;45.294;11.816;2023-04-03T13:23:30;2.80;;;1.10;;
68938;SDS011;59064;45.294;11.816;2023-04-03T13:25:59;5.10;;;1.40;;
68938;SDS011;59064;45.294;11.816;2023-04-03T13:28:28;3.80;;;1.50;;
68938;SDS011;59064;45.294;11.816;2023-04-03T13:30:59;2.80;;;1.00;;
68938;SDS011;59064;45.294;11.816;2023-04-03T13:33:27;3.00;;;1.20;;
68938;SDS011;59064;45.294;11.816;2023-04-03T13:35:58;4.80;;;1.00;;
68938;SDS011;59064;45.294;11.816;2023-04-03T13:38:29;2.70;;;0.90;;
68938;SDS011;59064;45.294;11.816;2023-04-03T13:41:04;3.20;;;1.20;;
68938;SDS011;59064;45.294;11.816;2023-04-03T13:43:46;4.40;;;1.30;;
68938;SDS011;59064;45.294;11.816;2023-04-03T13:48:47;3.70;;;1.30;;
68938;SDS011;59064;45.294;11.816;2023-04-03T13:51:18;3.20;;;1.10;;
68938;SDS011;59064;45.294;11.816;2023-04-03T13:53:49;3.90;;;1.40;;
68938;SDS011;59064;45.294;11.816;2023-04-03T13:56:35;3.40;;;1.30;;
68938;SDS011;59064;45.294;11.816;2023-04-03T14:04:19;2.90;;;1.00;;
68938;SDS011;59064;45.294;11.816;2023-04-03T14:06:48;2.70;;;1.10;;
68938;SDS011;59064;45.294;11.816;2023-04-03T14:09:16;3.70;;;1.40;;
68938;SDS011;59064;45.294;11.816;2023-04-03T14:11:43;4.70;;;1.20;;
68938;SDS011;59064;45.294;11.816;2023-04-03T14:14:17;6.00;;;1.20;;
68938;SDS011;59064;45.294;11.816;2023-04-03T14:16:48;3.90;;;1.10;;
68938;SDS011;59064;45.294;11.816;2023-04-03T14:19:20;3.80;;;1.40;;
68938;SDS011;59064;45.294;11.816;2023-04-03T14:21:48;3.50;;;1.50;;
68938;SDS011;59064;45.294;11.816;2023-04-03T14:24:16;3.60;;;1.10;;
68938;SDS011;59064;45.294;11.816;2023-04-03T14:26:42;2.60;;;1.00;;
68938;SDS011;59064;45.294;11.816;2023-04-03T14:29:09;3.80;;;1.20;;
68938;SDS011;59064;45.294;11.816;2023-04-03T14:31:35;3.90;;;1.30;;
68938;SDS011;59064;45.294;11.816;2023-04-03T14:34:01;4.30;;;1.50;;
68938;SDS011;59064;45.294;11.816;2023-04-03T14:36:27;3.30;;;1.20;;
68938;SDS011;59064;45.294;11.816;2023-04-03T14:38:54;4.30;;;1.30;;
68938;SDS011;59064;45.294;11.816;2023-04-03T14:41:21;3.10;;;1.00;;
68938;SDS011;59064;45.294;11.816;2023-04-03T14:43:48;3.60;;;1.00;;
68938;SDS011;59064;45.294;11.816;2023-04-03T14:46:37;2.10;;;0.80;;
68938;SDS011;59064;45.294;11.816;2023-04-03T14:49:03;3.00;;;1.00;;
68938;SDS011;59064;45.294;11.816;2023-04-03T14:51:32;3.70;;;1.10;;
68938;SDS011;59064;45.294;11.816;2023-04-03T14:53:59;3.60;;;1.50;;
68938;SDS011;59064;45.294;11.816;2023-04-03T14:56:27;4.40;;;1.30;;
68938;SDS011;59064;45.294;11.816;2023-04-03T14:59:00;4.10;;;1.10;;
68938;SDS011;59064;45.294;11.816;2023-04-03T15:01:27;2.30;;;1.00;;
68938;SDS011;59064;45.294;11.816;2023-04-03T15:03:53;2.60;;;1.00;;
68938;SDS011;59064;45.294;11.816;2023-04-03T15:06:19;4.30;;;1.10;;
68938;SDS011;59064;45.294;11.816;2023-04-03T15:08:47;2.90;;;1.20;;
68938;SDS011;59064;45.294;11.816;2023-04-03T15:11:13;2.90;;;1.10;;
68938;SDS011;59064;45.294;11.816;2023-04-03T15:13:39;2.70;;;1.10;;
68938;SDS011;59064;45.294;11.816;2023-04-03T15:16:16;5.20;;;1.40;;
68938;SDS011;59064;45.294;11.816;2023-04-03T15:18:43;3.30;;;1.10;;
68938;SDS011;59064;45.294;11.816;2023-04-03T15:21:09;4.30;;;1.20;;
68938;SDS011;59064;45.294;11.816;2023-04-03T15:23:34;2.90;;;0.90;;
68938;SDS011;59064;45.294;11.816;2023-04-03T15:26:00;3.50;;;1.20;;
68938;SDS011;59064;45.294;11.816;2023-04-03T15:28:30;2.50;;;0.90;;
68938;SDS011;59064;45.294;11.816;2023-04-03T15:30:59;3.20;;;1.30;;
68938;SDS011;59064;45.294;11.816;2023-04-03T15:33:25;2.80;;;1.10;;
68938;SDS011;59064;45.294;11.816;2023-04-03T15:35:51;3.20;;;1.10;;
68938;SDS011;59064;45.294;11.816;2023-04-03T15:38:17;2.70;;;1.00;;
68938;SDS011;59064;45.294;11.816;2023-04-03T15:40:42;3.30;;;1.20;;
68938;SDS011;59064;45.294;11.816;2023-04-03T15:43:08;3.20;;;1.20;;
68938;SDS011;59064;45.294;11.816;2023-04-03T15:45:35;4.40;;;1.10;;
68938;SDS011;59064;45.294;11.816;2023-04-03T15:48:02;3.10;;;1.20;;
68938;SDS011;59064;45.294;11.816;2023-04-03T15:50:28;3.50;;;1.10;;
68938;SDS011;59064;45.294;11.816;2023-04-03T15:52:54;2.40;;;1.00;;
68938;SDS011;59064;45.294;11.816;2023-04-03T15:55:26;3.70;;;1.10;;
68938;SDS011;59064;45.294;11.816;2023-04-03T15:57:53;2.70;;;1.30;;
68938;SDS011;59064;45.294;11.816;2023-04-03T16:00:19;2.90;;;1.00;;
68938;SDS011;59064;45.294;11.816;2023-04-03T16:02:47;3.90;;;1.20;;
68938;SDS011;59064;45.294;11.816;2023-04-03T16:05:15;3.20;;;0.90;;
68938;SDS011;59064;45.294;11.816;2023-04-03T16:07:42;5.30;;;1.20;;
68938;SDS011;59064;45.294;11.816;2023-04-03T16:10:09;3.60;;;1.20;;
68938;SDS011;59064;45.294;11.816;2023-04-03T16:12:36;4.40;;;1.20;;
68938;SDS011;59064;45.294;11.816;2023-04-03T16:15:02;4.80;;;1.30;;
68938;SDS011;59064;45.294;11.816;2023-04-03T16:17:28;3.70;;;1.00;;
68938;SDS011;59064;45.294;11.816;2023-04-03T16:19:55;4.00;;;1.30;;
68938;SDS011;59064;45.294;11.816;2023-04-03T16:22:21;4.30;;;1.30;;
68938;SDS011;59064;45.294;11.816;2023-04-03T16:24:50;4.10;;;1.10;;
68938;SDS011;59064;45.294;11.816;2023-04-03T16:27:16;3.20;;;1.40;;
68938;SDS011;59064;45.294;11.816;2023-04-03T16:29:42;2.80;;;1.00;;